sensor_id;sensor_type;location;lat;lon;timestamp;P1;durP1;ratioP1;P2;durP2;ratioP2
1336;SDS011;662;48.814;9.318;2023-09-30T00:01:02;5.50;;;3.60;;
1336;SDS011;662;48.814;9.318;2023-09-30T00:03:28;4.53;;;3.23;;
1336;SDS011;662;48.814;9.318;2023-09-30T00:05:54;4.77;;;3.20;;
1336;SDS011;662;48.814;9.318;2023-09-30T00:08:19;5.53;;;3.30;;
1336;SDS011;662;48.814;9.318;2023-09-30T00:10:45;5.90;;;3.07;;
1336;SDS011;662;48.814;9.318;2023-09-30T00:13:11;7.97;;;2.70;;
1336;SDS011;662;48.814;9.318;2023-09-30T00:15:38;4.47;;;2.80;;
1336;SDS011;662;48.814;9.318;2023-09-30T00:18:03;4.40;;;2.57;;
1336;SDS011;662;48.814;9.318;2023-09-30T00:20:30;3.47;;;2.47;;
1336;SDS011;662;48.814;9.318;2023-09-30T00:22:56;3.20;;;2.20;;
1336;SDS011;662;48.814;9.318;2023-09-30T00:25:23;4.10;;;2.30;;
1336;SDS011;662;48.814;9.318;2023-09-30T00:27:48;3.37;;;2.43;;
1336;SDS011;662;48.814;9.318;2023-09-30T00:30:14;3.43;;;2.30;;
1336;SDS011;662;48.814;9.318;2023-09-30T00:32:40;2.53;;;1.90;;
1336;SDS011;662;48.814;9.318;2023-09-30T00:35:06;5.27;;;3.33;;
1336;SDS011;662;48.814;9.318;2023-09-30T00:37:38;2.00;;;1.80;;
1336;SDS011;662;48.814;9.318;2023-09-30T00:40:04;6.27;;;2.40;;
1336;SDS011;662;48.814;9.318;2023-09-30T00:42:31;2.37;;;1.87;;
1336;SDS011;662;48.814;9.318;2023-09-30T00:44:56;3.10;;;2.30;;
1336;SDS011;662;48.814;9.318;2023-09-30T00:47:22;1.93;;;1.70;;
1336;SDS011;662;48.814;9.318;2023-09-30T00:49:49;2.53;;;1.70;;
1336;SDS011;662;48.814;9.318;2023-09-30T00:52:16;4.27;;;2.20;;
1336;SDS011;662;48.814;9.318;2023-09-30T00:54:42;3.00;;;1.87;;
1336;SDS011;662;48.814;9.318;2023-09-30T00:57:09;3.13;;;2.07;;
1336;SDS011;662;48.814;9.318;2023-09-30T00:59:36;2.30;;;1.87;;
1336;SDS011;662;48.814;9.318;2023-09-30T01:02:02;2.30;;;1.83;;
1336;SDS011;662;48.814;9.318;2023-09-30T01:04:30;2.47;;;2.20;;
1336;SDS011;662;48.814;9.318;2023-09-30T01:06:56;2.40;;;2.00;;
1336;SDS011;662;48.814;9.318;2023-09-30T01:09:25;3.27;;;2.40;;
1336;SDS011;662;48.814;9.318;2023-09-30T01:11:51;3.50;;;2.10;;
1336;SDS011;662;48.814;9.318;2023-09-30T01:14:27;2.30;;;1.90;;
1336;SDS011;662;48.814;9.318;2023-09-30T01:16:53;4.50;;;2.40;;
1336;SDS011;662;48.814;9.318;2023-09-30T01:19:19;3.30;;;1.73;;
1336;SDS011;662;48.814;9.318;2023-09-30T01:21:45;2.43;;;2.07;;
1336;SDS011;662;48.814;9.318;2023-09-30T01:24:14;2.50;;;1.80;;
1336;SDS011;662;48.814;9.318;2023-09-30T01:26:40;3.47;;;2.30;;
1336;SDS011;662;48.814;9.318;2023-09-30T01:29:07;2.53;;;1.50;;
1336;SDS011;662;48.814;9.318;2023-09-30T01:31:36;4.10;;;2.47;;
1336;SDS011;662;48.814;9.318;2023-09-30T01:34:03;2.30;;;1.73;;
1336;SDS011;662;48.814;9.318;2023-09-30T01:36:29;3.23;;;2.40;;
1336;SDS011;662;48.814;9.318;2023-09-30T01:38:54;2.77;;;2.00;;
1336;SDS011;662;48.814;9.318;2023-09-30T01:41:20;2.50;;;2.07;;
1336;SDS011;662;48.814;9.318;2023-09-30T01:43:47;3.07;;;2.07;;
1336;SDS011;662;48.814;9.318;2023-09-30T01:46:13;2.63;;;2.13;;
1336;SDS011;662;48.814;9.318;2023-09-30T01:48:39;4.00;;;2.53;;
1336;SDS011;662;48.814;9.318;2023-09-30T01:51:04;2.50;;;2.00;;
1336;SDS011;662;48.814;9.318;2023-09-30T01:53:31;6.00;;;2.50;;
1336;SDS011;662;48.814;9.318;2023-09-30T01:55:57;2.60;;;2.20;;
1336;SDS011;662;48.814;9.318;2023-09-30T01:58:23;3.10;;;2.40;;
1336;SDS011;662;48.814;9.318;2023-09-30T02:00:50;3.37;;;2.30;;
1336;SDS011;662;48.814;9.318;2023-09-30T02:03:19;4.90;;;3.10;;
1336;SDS011;662;48.814;9.318;2023-09-30T02:05:44;2.37;;;1.90;;
1336;SDS011;662;48.814;9.318;2023-09-30T02:08:10;3.77;;;2.10;;
1336;SDS011;662;48.814;9.318;2023-09-30T02:10:38;2.67;;;2.47;;
1336;SDS011;662;48.814;9.318;2023-09-30T02:13:04;2.73;;;2.40;;
1336;SDS011;662;48.814;9.318;2023-09-30T02:15:31;2.80;;;2.37;;
1336;SDS011;662;48.814;9.318;2023-09-30T02:17:57;5.70;;;2.70;;
1336;SDS011;662;48.814;9.318;2023-09-30T02:20:22;3.33;;;2.37;;
1336;SDS011;662;48.814;9.318;2023-09-30T02:22:50;4.10;;;2.43;;
1336;SDS011;662;48.814;9.318;2023-09-30T02:25:17;2.60;;;2.40;;
1336;SDS011;662;48.814;9.318;2023-09-30T02:27:43;5.27;;;3.57;;
1336;SDS011;662;48.814;9.318;2023-09-30T02:30:11;3.00;;;2.70;;
1336;SDS011;662;48.814;9.318;2023-09-30T02:32:41;3.00;;;2.70;;
1336;SDS011;662;48.814;9.318;2023-09-30T02:35:07;4.37;;;2.67;;
1336;SDS011;662;48.814;9.318;2023-09-30T02:37:36;5.00;;;2.97;;
1336;SDS011;662;48.814;9.318;2023-09-30T02:40:03;3.87;;;2.60;;
1336;SDS011;662;48.814;9.318;2023-09-30T02:42:38;6.70;;;2.73;;
1336;SDS011;662;48.814;9.318;2023-09-30T02:45:05;4.33;;;2.70;;
1336;SDS011;662;48.814;9.318;2023-09-30T02:47:33;2.80;;;2.60;;
1336;SDS011;662;48.814;9.318;2023-09-30T02:49:59;3.60;;;2.83;;
1336;SDS011;662;48.814;9.318;2023-09-30T02:52:26;4.27;;;2.80;;
1336;SDS011;662;48.814;9.318;2023-09-30T02:54:53;5.17;;;3.23;;
1336;SDS011;662;48.814;9.318;2023-09-30T02:57:20;3.03;;;2.70;;
1336;SDS011;662;48.814;9.318;2023-09-30T02:59:46;3.40;;;2.97;;
1336;SDS011;662;48.814;9.318;2023-09-30T03:02:12;3.50;;;2.60;;
1336;SDS011;662;48.814;9.318;2023-09-30T03:04:38;4.70;;;3.00;;
1336;SDS011;662;48.814;9.318;2023-09-30T03:07:03;3.57;;;2.63;;
1336;SDS011;662;48.814;9.318;2023-09-30T03:09:30;3.27;;;2.80;;
1336;SDS011;662;48.814;9.318;2023-09-30T03:11:56;3.30;;;2.80;;
1336;SDS011;662;48.814;9.318;2023-09-30T03:14:24;4.03;;;2.80;;
1336;SDS011;662;48.814;9.318;2023-09-30T03:16:50;2.83;;;2.63;;
1336;SDS011;662;48.814;9.318;2023-09-30T03:19:15;4.43;;;3.10;;
1336;SDS011;662;48.814;9.318;2023-09-30T03:21:41;4.07;;;3.00;;
1336;SDS011;662;48.814;9.318;2023-09-30T03:24:08;3.43;;;2.93;;
1336;SDS011;662;48.814;9.318;2023-09-30T03:26:34;5.50;;;2.90;;
1336;SDS011;662;48.814;9.318;2023-09-30T03:29:00;3.27;;;2.97;;
1336;SDS011;662;48.814;9.318;2023-09-30T03:31:26;3.40;;;3.10;;
1336;SDS011;662;48.814;9.318;2023-09-30T03:33:51;4.30;;;3.43;;
1336;SDS011;662;48.814;9.318;2023-09-30T03:36:21;5.53;;;4.10;;
1336;SDS011;662;48.814;9.318;2023-09-30T03:38:51;4.10;;;3.20;;
1336;SDS011;662;48.814;9.318;2023-09-30T03:41:19;4.03;;;3.60;;
1336;SDS011;662;48.814;9.318;2023-09-30T03:43:45;6.07;;;3.57;;
1336;SDS011;662;48.814;9.318;2023-09-30T03:46:10;4.10;;;3.57;;
1336;SDS011;662;48.814;9.318;2023-09-30T03:48:37;4.47;;;3.40;;
1336;SDS011;662;48.814;9.318;2023-09-30T03:51:12;5.00;;;4.17;;
1336;SDS011;662;48.814;9.318;2023-09-30T03:53:41;4.13;;;3.73;;
1336;SDS011;662;48.814;9.318;2023-09-30T03:56:07;4.07;;;3.77;;
1336;SDS011;662;48.814;9.318;2023-09-30T03:58:33;5.93;;;4.27;;
1336;SDS011;662;48.814;9.318;2023-09-30T04:00:59;4.83;;;3.60;;
1336;SDS011;662;48.814;9.318;2023-09-30T04:03:29;4.30;;;3.40;;
1336;SDS011;662;48.814;9.318;2023-09-30T04:05:55;4.53;;;3.60;;
1336;SDS011;662;48.814;9.318;2023-09-30T04:08:21;6.63;;;4.30;;
1336;SDS011;662;48.814;9.318;2023-09-30T04:10:47;5.60;;;4.20;;
1336;SDS011;662;48.814;9.318;2023-09-30T04:13:14;9.73;;;7.20;;
1336;SDS011;662;48.814;9.318;2023-09-30T04:15:39;14.23;;;8.60;;
1336;SDS011;662;48.814;9.318;2023-09-30T04:18:05;10.83;;;7.80;;
1336;SDS011;662;48.814;9.318;2023-09-30T04:20:31;9.20;;;6.40;;
1336;SDS011;662;48.814;9.318;2023-09-30T04:22:57;7.87;;;5.13;;
1336;SDS011;662;48.814;9.318;2023-09-30T04:25:23;6.03;;;4.80;;
1336;SDS011;662;48.814;9.318;2023-09-30T04:27:49;4.57;;;3.13;;
1336;SDS011;662;48.814;9.318;2023-09-30T04:30:15;3.60;;;3.30;;
1336;SDS011;662;48.814;9.318;2023-09-30T04:32:41;4.50;;;4.10;;
1336;SDS011;662;48.814;9.318;2023-09-30T04:35:07;6.53;;;4.20;;
1336;SDS011;662;48.814;9.318;2023-09-30T04:37:34;6.63;;;4.20;;
1336;SDS011;662;48.814;9.318;2023-09-30T04:40:01;4.73;;;3.23;;
1336;SDS011;662;48.814;9.318;2023-09-30T04:42:33;7.57;;;4.40;;
1336;SDS011;662;48.814;9.318;2023-09-30T04:45:02;7.93;;;5.47;;
1336;SDS011;662;48.814;9.318;2023-09-30T04:47:29;6.20;;;4.83;;
1336;SDS011;662;48.814;9.318;2023-09-30T04:49:54;8.97;;;5.00;;
1336;SDS011;662;48.814;9.318;2023-09-30T04:52:23;7.63;;;5.90;;
1336;SDS011;662;48.814;9.318;2023-09-30T04:54:52;7.00;;;4.93;;
1336;SDS011;662;48.814;9.318;2023-09-30T04:57:17;5.73;;;4.83;;
1336;SDS011;662;48.814;9.318;2023-09-30T04:59:44;6.90;;;5.37;;
1336;SDS011;662;48.814;9.318;2023-09-30T05:02:11;8.47;;;5.07;;
1336;SDS011;662;48.814;9.318;2023-09-30T05:04:40;6.30;;;5.00;;
1336;SDS011;662;48.814;9.318;2023-09-30T05:07:07;6.30;;;5.30;;
1336;SDS011;662;48.814;9.318;2023-09-30T05:09:33;15.03;;;10.77;;
1336;SDS011;662;48.814;9.318;2023-09-30T05:11:58;13.73;;;10.00;;
1336;SDS011;662;48.814;9.318;2023-09-30T05:14:24;16.73;;;10.90;;
1336;SDS011;662;48.814;9.318;2023-09-30T05:16:50;25.43;;;13.60;;
1336;SDS011;662;48.814;9.318;2023-09-30T05:19:15;20.37;;;14.40;;
1336;SDS011;662;48.814;9.318;2023-09-30T05:21:41;18.03;;;11.40;;
1336;SDS011;662;48.814;9.318;2023-09-30T05:24:07;14.87;;;8.53;;
1336;SDS011;662;48.814;9.318;2023-09-30T05:26:33;13.13;;;8.43;;
1336;SDS011;662;48.814;9.318;2023-09-30T05:28:59;15.10;;;10.30;;
1336;SDS011;662;48.814;9.318;2023-09-30T05:31:24;14.70;;;9.50;;
1336;SDS011;662;48.814;9.318;2023-09-30T05:33:50;19.00;;;10.60;;
1336;SDS011;662;48.814;9.318;2023-09-30T05:36:16;12.77;;;8.80;;
1336;SDS011;662;48.814;9.318;2023-09-30T05:38:41;12.50;;;7.77;;
1336;SDS011;662;48.814;9.318;2023-09-30T05:41:07;11.53;;;6.40;;
1336;SDS011;662;48.814;9.318;2023-09-30T05:43:33;7.13;;;5.40;;
1336;SDS011;662;48.814;9.318;2023-09-30T05:45:59;6.30;;;4.60;;
1336;SDS011;662;48.814;9.318;2023-09-30T05:48:24;4.87;;;3.83;;
1336;SDS011;662;48.814;9.318;2023-09-30T05:50:50;5.17;;;3.90;;
1336;SDS011;662;48.814;9.318;2023-09-30T05:53:15;5.70;;;4.70;;
1336;SDS011;662;48.814;9.318;2023-09-30T05:55:42;4.40;;;4.00;;
1336;SDS011;662;48.814;9.318;2023-09-30T05:58:14;5.63;;;4.03;;
1336;SDS011;662;48.814;9.318;2023-09-30T06:00:42;4.23;;;3.60;;
1336;SDS011;662;48.814;9.318;2023-09-30T06:03:12;7.17;;;4.90;;
1336;SDS011;662;48.814;9.318;2023-09-30T06:05:40;5.90;;;4.63;;
1336;SDS011;662;48.814;9.318;2023-09-30T06:08:07;6.57;;;4.20;;
1336;SDS011;662;48.814;9.318;2023-09-30T06:10:36;5.87;;;4.30;;
1336;SDS011;662;48.814;9.318;2023-09-30T06:13:04;7.03;;;4.60;;
1336;SDS011;662;48.814;9.318;2023-09-30T06:15:30;5.90;;;4.50;;
1336;SDS011;662;48.814;9.318;2023-09-30T06:17:56;4.83;;;4.40;;
1336;SDS011;662;48.814;9.318;2023-09-30T06:20:22;4.43;;;4.03;;
1336;SDS011;662;48.814;9.318;2023-09-30T06:22:51;4.47;;;3.90;;
1336;SDS011;662;48.814;9.318;2023-09-30T06:25:19;6.03;;;4.00;;
1336;SDS011;662;48.814;9.318;2023-09-30T06:27:45;5.03;;;4.17;;
1336;SDS011;662;48.814;9.318;2023-09-30T06:30:14;10.20;;;5.23;;
1336;SDS011;662;48.814;9.318;2023-09-30T06:33:08;9.17;;;4.43;;
1336;SDS011;662;48.814;9.318;2023-09-30T06:35:36;11.60;;;6.60;;
1336;SDS011;662;48.814;9.318;2023-09-30T06:38:05;17.40;;;8.10;;
1336;SDS011;662;48.814;9.318;2023-09-30T06:40:32;14.47;;;7.60;;
1336;SDS011;662;48.814;9.318;2023-09-30T06:42:58;16.07;;;9.00;;
1336;SDS011;662;48.814;9.318;2023-09-30T06:45:26;14.03;;;7.67;;
1336;SDS011;662;48.814;9.318;2023-09-30T06:47:51;13.13;;;6.30;;
1336;SDS011;662;48.814;9.318;2023-09-30T06:50:18;14.43;;;6.37;;
1336;SDS011;662;48.814;9.318;2023-09-30T06:52:46;11.80;;;5.10;;
1336;SDS011;662;48.814;9.318;2023-09-30T06:55:14;6.00;;;5.23;;
1336;SDS011;662;48.814;9.318;2023-09-30T06:57:41;7.00;;;4.63;;
1336;SDS011;662;48.814;9.318;2023-09-30T07:00:10;8.43;;;5.60;;
1336;SDS011;662;48.814;9.318;2023-09-30T07:02:38;6.70;;;5.07;;
1336;SDS011;662;48.814;9.318;2023-09-30T07:05:10;7.23;;;4.77;;
1336;SDS011;662;48.814;9.318;2023-09-30T07:07:37;7.60;;;4.80;;
1336;SDS011;662;48.814;9.318;2023-09-30T07:10:05;7.27;;;4.73;;
1336;SDS011;662;48.814;9.318;2023-09-30T07:12:31;5.63;;;4.70;;
1336;SDS011;662;48.814;9.318;2023-09-30T07:15:00;8.80;;;5.23;;
1336;SDS011;662;48.814;9.318;2023-09-30T07:17:26;8.77;;;4.90;;
1336;SDS011;662;48.814;9.318;2023-09-30T07:19:52;6.30;;;5.50;;
1336;SDS011;662;48.814;9.318;2023-09-30T07:22:18;10.00;;;5.63;;
1336;SDS011;662;48.814;9.318;2023-09-30T07:24:44;7.03;;;5.40;;
1336;SDS011;662;48.814;9.318;2023-09-30T07:27:09;6.63;;;4.40;;
1336;SDS011;662;48.814;9.318;2023-09-30T07:29:35;5.80;;;4.30;;
1336;SDS011;662;48.814;9.318;2023-09-30T07:32:00;4.93;;;4.43;;
1336;SDS011;662;48.814;9.318;2023-09-30T07:34:26;6.73;;;4.53;;
1336;SDS011;662;48.814;9.318;2023-09-30T07:36:52;5.47;;;4.60;;
1336;SDS011;662;48.814;9.318;2023-09-30T07:39:17;5.60;;;4.50;;
1336;SDS011;662;48.814;9.318;2023-09-30T07:41:43;6.10;;;3.93;;
1336;SDS011;662;48.814;9.318;2023-09-30T07:44:09;7.43;;;4.60;;
1336;SDS011;662;48.814;9.318;2023-09-30T07:46:35;5.03;;;3.63;;
1336;SDS011;662;48.814;9.318;2023-09-30T07:49:00;6.67;;;4.87;;
1336;SDS011;662;48.814;9.318;2023-09-30T07:51:28;5.57;;;4.63;;
1336;SDS011;662;48.814;9.318;2023-09-30T07:53:54;6.50;;;4.90;;
1336;SDS011;662;48.814;9.318;2023-09-30T07:56:22;5.40;;;4.57;;
1336;SDS011;662;48.814;9.318;2023-09-30T07:58:48;5.90;;;4.40;;
1336;SDS011;662;48.814;9.318;2023-09-30T08:01:13;6.60;;;5.20;;
1336;SDS011;662;48.814;9.318;2023-09-30T08:03:40;6.03;;;4.83;;
1336;SDS011;662;48.814;9.318;2023-09-30T08:06:07;6.37;;;3.50;;
1336;SDS011;662;48.814;9.318;2023-09-30T08:08:34;9.87;;;4.40;;
1336;SDS011;662;48.814;9.318;2023-09-30T08:11:00;7.10;;;4.30;;
1336;SDS011;662;48.814;9.318;2023-09-30T08:13:26;6.17;;;4.10;;
1336;SDS011;662;48.814;9.318;2023-09-30T08:15:52;8.27;;;4.63;;
1336;SDS011;662;48.814;9.318;2023-09-30T08:18:18;5.63;;;4.50;;
1336;SDS011;662;48.814;9.318;2023-09-30T08:20:44;7.67;;;4.20;;
1336;SDS011;662;48.814;9.318;2023-09-30T08:23:10;5.93;;;4.03;;
1336;SDS011;662;48.814;9.318;2023-09-30T08:25:36;7.60;;;5.00;;
1336;SDS011;662;48.814;9.318;2023-09-30T08:28:03;6.40;;;4.13;;
1336;SDS011;662;48.814;9.318;2023-09-30T08:30:29;7.33;;;5.40;;
1336;SDS011;662;48.814;9.318;2023-09-30T08:32:55;7.30;;;5.00;;
1336;SDS011;662;48.814;9.318;2023-09-30T08:35:21;5.70;;;4.00;;
1336;SDS011;662;48.814;9.318;2023-09-30T08:37:46;4.37;;;3.60;;
1336;SDS011;662;48.814;9.318;2023-09-30T08:40:12;5.83;;;3.60;;
1336;SDS011;662;48.814;9.318;2023-09-30T08:42:38;9.37;;;4.70;;
1336;SDS011;662;48.814;9.318;2023-09-30T08:45:04;5.40;;;4.10;;
1336;SDS011;662;48.814;9.318;2023-09-30T08:47:33;8.83;;;5.13;;
1336;SDS011;662;48.814;9.318;2023-09-30T08:50:00;19.20;;;7.23;;
1336;SDS011;662;48.814;9.318;2023-09-30T08:52:34;5.20;;;3.80;;
1336;SDS011;662;48.814;9.318;2023-09-30T08:55:02;6.70;;;4.80;;
1336;SDS011;662;48.814;9.318;2023-09-30T08:57:28;6.00;;;4.17;;
1336;SDS011;662;48.814;9.318;2023-09-30T08:59:55;6.53;;;4.07;;
1336;SDS011;662;48.814;9.318;2023-09-30T09:02:20;6.20;;;4.13;;
1336;SDS011;662;48.814;9.318;2023-09-30T09:04:46;5.37;;;3.90;;
1336;SDS011;662;48.814;9.318;2023-09-30T09:07:12;4.97;;;4.10;;
1336;SDS011;662;48.814;9.318;2023-09-30T09:09:38;5.17;;;4.27;;
1336;SDS011;662;48.814;9.318;2023-09-30T09:12:04;6.77;;;4.07;;
1336;SDS011;662;48.814;9.318;2023-09-30T09:14:39;7.90;;;4.40;;
1336;SDS011;662;48.814;9.318;2023-09-30T09:17:06;4.30;;;3.57;;
1336;SDS011;662;48.814;9.318;2023-09-30T09:19:33;4.30;;;3.30;;
1336;SDS011;662;48.814;9.318;2023-09-30T09:22:00;6.70;;;3.87;;
1336;SDS011;662;48.814;9.318;2023-09-30T09:24:36;4.03;;;3.63;;
1336;SDS011;662;48.814;9.318;2023-09-30T09:29:37;5.10;;;4.00;;
1336;SDS011;662;48.814;9.318;2023-09-30T09:32:11;5.83;;;3.67;;
1336;SDS011;662;48.814;9.318;2023-09-30T09:34:41;5.17;;;3.70;;
1336;SDS011;662;48.814;9.318;2023-09-30T09:37:17;6.50;;;3.70;;
1336;SDS011;662;48.814;9.318;2023-09-30T09:42:29;5.13;;;3.63;;
1336;SDS011;662;48.814;9.318;2023-09-30T09:44:57;4.63;;;3.63;;
1336;SDS011;662;48.814;9.318;2023-09-30T09:47:24;3.90;;;3.50;;
1336;SDS011;662;48.814;9.318;2023-09-30T09:49:50;3.93;;;3.27;;
1336;SDS011;662;48.814;9.318;2023-09-30T09:52:18;5.40;;;3.60;;
1336;SDS011;662;48.814;9.318;2023-09-30T09:54:44;5.60;;;3.50;;
1336;SDS011;662;48.814;9.318;2023-09-30T09:57:13;5.50;;;3.60;;
1336;SDS011;662;48.814;9.318;2023-09-30T09:59:41;4.73;;;3.47;;
1336;SDS011;662;48.814;9.318;2023-09-30T10:02:10;3.27;;;2.97;;
1336;SDS011;662;48.814;9.318;2023-09-30T10:04:39;5.63;;;3.67;;
1336;SDS011;662;48.814;9.318;2023-09-30T10:07:06;4.70;;;3.30;;
1336;SDS011;662;48.814;9.318;2023-09-30T10:09:34;6.80;;;3.60;;
1336;SDS011;662;48.814;9.318;2023-09-30T10:12:01;4.90;;;3.23;;
1336;SDS011;662;48.814;9.318;2023-09-30T10:14:33;5.13;;;3.43;;
1336;SDS011;662;48.814;9.318;2023-09-30T10:16:59;5.37;;;3.80;;
1336;SDS011;662;48.814;9.318;2023-09-30T10:19:25;7.43;;;3.80;;
1336;SDS011;662;48.814;9.318;2023-09-30T10:24:44;4.87;;;2.90;;
1336;SDS011;662;48.814;9.318;2023-09-30T10:29:58;4.30;;;3.90;;
1336;SDS011;662;48.814;9.318;2023-09-30T10:35:15;5.80;;;3.77;;
1336;SDS011;662;48.814;9.318;2023-09-30T10:37:44;5.70;;;3.83;;
1336;SDS011;662;48.814;9.318;2023-09-30T10:40:25;5.63;;;3.63;;
1336;SDS011;662;48.814;9.318;2023-09-30T10:42:52;7.27;;;3.90;;
1336;SDS011;662;48.814;9.318;2023-09-30T10:48:31;6.20;;;3.40;;
1336;SDS011;662;48.814;9.318;2023-09-30T10:50:53;5.37;;;4.00;;
1336;SDS011;662;48.814;9.318;2023-09-30T10:53:21;4.53;;;3.30;;
1336;SDS011;662;48.814;9.318;2023-09-30T10:55:54;6.60;;;4.07;;
1336;SDS011;662;48.814;9.318;2023-09-30T10:58:44;4.90;;;3.53;;
1336;SDS011;662;48.814;9.318;2023-09-30T11:01:14;5.80;;;4.10;;
1336;SDS011;662;48.814;9.318;2023-09-30T11:03:42;5.80;;;3.87;;
1336;SDS011;662;48.814;9.318;2023-09-30T11:06:10;4.77;;;4.07;;
1336;SDS011;662;48.814;9.318;2023-09-30T11:08:40;4.90;;;3.20;;
1336;SDS011;662;48.814;9.318;2023-09-30T11:11:11;6.43;;;4.17;;
1336;SDS011;662;48.814;9.318;2023-09-30T11:13:36;5.23;;;3.87;;
1336;SDS011;662;48.814;9.318;2023-09-30T11:16:04;7.60;;;4.70;;
1336;SDS011;662;48.814;9.318;2023-09-30T11:18:30;5.53;;;3.40;;
1336;SDS011;662;48.814;9.318;2023-09-30T11:23:35;5.80;;;4.10;;
1336;SDS011;662;48.814;9.318;2023-09-30T11:26:01;5.30;;;3.70;;
1336;SDS011;662;48.814;9.318;2023-09-30T11:28:35;7.50;;;4.00;;
1336;SDS011;662;48.814;9.318;2023-09-30T11:31:01;4.10;;;3.37;;
1336;SDS011;662;48.814;9.318;2023-09-30T11:33:28;9.13;;;4.50;;
1336;SDS011;662;48.814;9.318;2023-09-30T11:35:55;5.20;;;3.40;;
1336;SDS011;662;48.814;9.318;2023-09-30T11:38:29;8.40;;;4.40;;
1336;SDS011;662;48.814;9.318;2023-09-30T11:40:58;7.60;;;4.20;;
1336;SDS011;662;48.814;9.318;2023-09-30T11:43:28;5.63;;;3.60;;
1336;SDS011;662;48.814;9.318;2023-09-30T11:46:09;4.80;;;3.70;;
1336;SDS011;662;48.814;9.318;2023-09-30T11:49:23;5.27;;;3.87;;
1336;SDS011;662;48.814;9.318;2023-09-30T11:51:27;9.40;;;4.37;;
1336;SDS011;662;48.814;9.318;2023-09-30T11:53:54;5.40;;;3.97;;
1336;SDS011;662;48.814;9.318;2023-09-30T11:56:21;6.53;;;3.70;;
1336;SDS011;662;48.814;9.318;2023-09-30T11:58:52;7.73;;;4.20;;
1336;SDS011;662;48.814;9.318;2023-09-30T12:01:19;7.07;;;4.60;;
1336;SDS011;662;48.814;9.318;2023-09-30T12:03:45;6.50;;;3.43;;
1336;SDS011;662;48.814;9.318;2023-09-30T12:06:12;6.00;;;3.77;;
1336;SDS011;662;48.814;9.318;2023-09-30T12:08:41;5.73;;;4.10;;
1336;SDS011;662;48.814;9.318;2023-09-30T12:11:08;6.33;;;4.40;;
1336;SDS011;662;48.814;9.318;2023-09-30T12:13:38;6.77;;;4.03;;
1336;SDS011;662;48.814;9.318;2023-09-30T12:16:04;6.30;;;3.87;;
1336;SDS011;662;48.814;9.318;2023-09-30T12:18:30;5.60;;;4.37;;
1336;SDS011;662;48.814;9.318;2023-09-30T12:20:55;6.27;;;4.13;;
1336;SDS011;662;48.814;9.318;2023-09-30T12:23:21;4.93;;;3.33;;
1336;SDS011;662;48.814;9.318;2023-09-30T12:25:47;5.60;;;4.30;;
1336;SDS011;662;48.814;9.318;2023-09-30T12:28:13;8.30;;;3.90;;
1336;SDS011;662;48.814;9.318;2023-09-30T12:30:40;4.90;;;3.27;;
1336;SDS011;662;48.814;9.318;2023-09-30T12:33:06;5.93;;;4.10;;
1336;SDS011;662;48.814;9.318;2023-09-30T12:35:33;5.93;;;4.20;;
1336;SDS011;662;48.814;9.318;2023-09-30T12:37:59;7.13;;;3.87;;
1336;SDS011;662;48.814;9.318;2023-09-30T12:40:24;8.07;;;4.57;;
1336;SDS011;662;48.814;9.318;2023-09-30T12:42:50;4.93;;;3.60;;
1336;SDS011;662;48.814;9.318;2023-09-30T12:45:16;6.97;;;3.70;;
1336;SDS011;662;48.814;9.318;2023-09-30T12:47:43;7.17;;;3.90;;
1336;SDS011;662;48.814;9.318;2023-09-30T12:50:09;7.67;;;4.23;;
1336;SDS011;662;48.814;9.318;2023-09-30T12:52:35;5.40;;;3.50;;
1336;SDS011;662;48.814;9.318;2023-09-30T12:55:01;6.43;;;4.23;;
1336;SDS011;662;48.814;9.318;2023-09-30T12:57:28;8.00;;;3.90;;
1336;SDS011;662;48.814;9.318;2023-09-30T12:59:53;6.57;;;3.80;;
1336;SDS011;662;48.814;9.318;2023-09-30T13:02:19;6.30;;;4.00;;
1336;SDS011;662;48.814;9.318;2023-09-30T13:04:45;8.80;;;4.47;;
1336;SDS011;662;48.814;9.318;2023-09-30T13:07:11;5.50;;;3.90;;
1336;SDS011;662;48.814;9.318;2023-09-30T13:09:40;5.30;;;4.20;;
1336;SDS011;662;48.814;9.318;2023-09-30T13:12:07;6.03;;;3.80;;
1336;SDS011;662;48.814;9.318;2023-09-30T13:14:33;5.23;;;3.60;;
1336;SDS011;662;48.814;9.318;2023-09-30T13:16:59;5.80;;;4.13;;
1336;SDS011;662;48.814;9.318;2023-09-30T13:19:26;8.57;;;4.87;;
1336;SDS011;662;48.814;9.318;2023-09-30T13:21:52;5.33;;;3.40;;
1336;SDS011;662;48.814;9.318;2023-09-30T13:24:22;6.57;;;3.50;;
1336;SDS011;662;48.814;9.318;2023-09-30T13:26:48;7.70;;;4.57;;
1336;SDS011;662;48.814;9.318;2023-09-30T13:29:17;7.40;;;3.90;;
1336;SDS011;662;48.814;9.318;2023-09-30T13:31:43;6.10;;;3.90;;
1336;SDS011;662;48.814;9.318;2023-09-30T13:34:10;7.13;;;4.73;;
1336;SDS011;662;48.814;9.318;2023-09-30T13:36:37;11.10;;;4.50;;
1336;SDS011;662;48.814;9.318;2023-09-30T13:39:03;7.20;;;3.90;;
1336;SDS011;662;48.814;9.318;2023-09-30T13:41:34;9.50;;;4.80;;
1336;SDS011;662;48.814;9.318;2023-09-30T13:44:00;7.03;;;3.93;;
1336;SDS011;662;48.814;9.318;2023-09-30T13:46:26;7.50;;;3.23;;
1336;SDS011;662;48.814;9.318;2023-09-30T13:48:53;5.20;;;3.77;;
1336;SDS011;662;48.814;9.318;2023-09-30T13:51:18;5.70;;;3.67;;
1336;SDS011;662;48.814;9.318;2023-09-30T13:53:44;9.63;;;4.90;;
1336;SDS011;662;48.814;9.318;2023-09-30T13:56:10;6.50;;;4.00;;
1336;SDS011;662;48.814;9.318;2023-09-30T13:58:36;7.60;;;4.30;;
1336;SDS011;662;48.814;9.318;2023-09-30T14:01:02;4.93;;;4.10;;
1336;SDS011;662;48.814;9.318;2023-09-30T14:03:28;6.07;;;3.97;;
1336;SDS011;662;48.814;9.318;2023-09-30T14:05:54;6.40;;;4.13;;
1336;SDS011;662;48.814;9.318;2023-09-30T14:08:21;5.97;;;3.37;;
1336;SDS011;662;48.814;9.318;2023-09-30T14:10:47;6.50;;;3.60;;
1336;SDS011;662;48.814;9.318;2023-09-30T14:13:13;11.20;;;4.40;;
1336;SDS011;662;48.814;9.318;2023-09-30T14:15:41;6.00;;;4.57;;
1336;SDS011;662;48.814;9.318;2023-09-30T14:18:06;5.73;;;3.83;;
1336;SDS011;662;48.814;9.318;2023-09-30T14:20:39;7.80;;;4.53;;
1336;SDS011;662;48.814;9.318;2023-09-30T14:23:06;7.40;;;3.60;;
1336;SDS011;662;48.814;9.318;2023-09-30T14:25:32;5.17;;;3.37;;
1336;SDS011;662;48.814;9.318;2023-09-30T14:27:58;5.97;;;3.93;;
1336;SDS011;662;48.814;9.318;2023-09-30T14:30:25;7.23;;;3.80;;
1336;SDS011;662;48.814;9.318;2023-09-30T14:32:50;7.10;;;4.37;;
1336;SDS011;662;48.814;9.318;2023-09-30T14:35:17;7.53;;;4.47;;
1336;SDS011;662;48.814;9.318;2023-09-30T14:37:42;8.53;;;4.53;;
1336;SDS011;662;48.814;9.318;2023-09-30T14:40:08;6.73;;;4.27;;
1336;SDS011;662;48.814;9.318;2023-09-30T14:42:36;7.07;;;4.40;;
1336;SDS011;662;48.814;9.318;2023-09-30T14:45:02;6.10;;;3.80;;
1336;SDS011;662;48.814;9.318;2023-09-30T14:47:28;6.83;;;4.27;;
1336;SDS011;662;48.814;9.318;2023-09-30T14:49:56;5.70;;;3.97;;
1336;SDS011;662;48.814;9.318;2023-09-30T14:52:26;6.13;;;3.90;;
1336;SDS011;662;48.814;9.318;2023-09-30T14:54:52;6.63;;;4.07;;
1336;SDS011;662;48.814;9.318;2023-09-30T14:57:18;5.30;;;4.27;;
1336;SDS011;662;48.814;9.318;2023-09-30T14:59:46;9.87;;;5.07;;
1336;SDS011;662;48.814;9.318;2023-09-30T15:02:11;6.57;;;4.60;;
1336;SDS011;662;48.814;9.318;2023-09-30T15:04:37;9.13;;;4.50;;
1336;SDS011;662;48.814;9.318;2023-09-30T15:07:03;7.37;;;5.00;;
1336;SDS011;662;48.814;9.318;2023-09-30T15:09:28;8.60;;;3.63;;
1336;SDS011;662;48.814;9.318;2023-09-30T15:11:54;8.23;;;4.17;;
1336;SDS011;662;48.814;9.318;2023-09-30T15:14:20;6.80;;;3.83;;
1336;SDS011;662;48.814;9.318;2023-09-30T15:16:45;8.40;;;4.57;;
1336;SDS011;662;48.814;9.318;2023-09-30T15:19:11;6.30;;;4.53;;
1336;SDS011;662;48.814;9.318;2023-09-30T15:21:37;6.40;;;4.47;;
1336;SDS011;662;48.814;9.318;2023-09-30T15:24:03;7.37;;;3.87;;
1336;SDS011;662;48.814;9.318;2023-09-30T15:26:29;8.03;;;4.90;;
1336;SDS011;662;48.814;9.318;2023-09-30T15:28:56;7.20;;;4.70;;
1336;SDS011;662;48.814;9.318;2023-09-30T15:31:28;6.03;;;3.77;;
1336;SDS011;662;48.814;9.318;2023-09-30T15:33:57;7.20;;;4.00;;
1336;SDS011;662;48.814;9.318;2023-09-30T15:36:23;9.20;;;4.77;;
1336;SDS011;662;48.814;9.318;2023-09-30T15:38:50;7.23;;;4.50;;
1336;SDS011;662;48.814;9.318;2023-09-30T15:41:19;9.17;;;4.77;;
1336;SDS011;662;48.814;9.318;2023-09-30T15:43:48;5.13;;;3.73;;
1336;SDS011;662;48.814;9.318;2023-09-30T15:46:14;8.80;;;4.23;;
1336;SDS011;662;48.814;9.318;2023-09-30T15:48:40;8.10;;;3.90;;